Accueil
METAR-TAF:

METAR-TAF

Aéroports :

Aéroport international de Norwich

Norwich, Angleterre

latitude: 52-38N, longitude: 001-18E, altitude: 14 m

Observation

Le bulletin a été fait il y a 21 minutes, à 04:50 UTC
Vent 4 kt de nord
Température 15°C
Humidité 94%
Pression 1019 hPa
Visibilité: 6000 m

METAR: EGSH 200450Z AUTO 35004KT 6000 BKN013/// BKN018/// 15/14 Q1019

Heure: 06:11 (05:11 UTC)

Prévision

Le bulletin a été fait il y a 3 heures et 15 minutes, à 01:56 UTC
Prévision valable du 20 à 03 UTC au 20 à 12 UTC
Vent 3 kt de nord-ouest
Visibilité 10 km ou plus
Nuages épars à une hauteur de 2500 ft
Probabilité 30% :
Temporairement
du 20 à 03 UTC au 20 à 09 UTC
Visibilité: 4000 m
Nuages fragmentés à une hauteur de 600 ft
pluie, bruine
Evoluant progressivement
du 20 à 09 UTC au 20 à 12 UTC
Vent 10 kt de est/sud-est

TAF: EGSH 200156Z 2003/2012 31003KT 9999 SCT025 PROB30 TEMPO 2003/2009 4000 RADZ BKN006 BECMG 2009/2012 11010KT

Observations et prévisions météorologiques de plus de 4000 aéroports (messages METAR et TAF).

Les stations disponibles sont représentées par des disques jaunes et rouges sur la carte.

Passer la souris dessus pour voir le nom de la station.

Cliquer dessus pour voir les observations et prévisions météorologiques.

Pour changer de carte: cliquez sur les boutons verts avec une croix noire pour zoomer, sur le bouton vert avec un tiret pour effectuer un zoom arrière, ou sur les flèches vertes pour les cartes adjacentes.


METAR-TAF: